createdAt,value
2022-10-28T00:00:24.855Z,100.00
2022-10-28T00:04:26.327Z,100.00
2022-10-28T00:08:28.507Z,100.00
2022-10-28T00:12:29.943Z,100.00
2022-10-28T00:16:33.696Z,100.00
2022-10-28T00:20:35.070Z,100.00
2022-10-28T00:24:36.482Z,100.00
2022-10-28T00:28:49.248Z,100.00
2022-10-28T00:32:50.722Z,100.00
2022-10-28T00:36:52.310Z,100.00
2022-10-28T00:40:53.634Z,100.00
2022-10-28T00:44:58.836Z,100.00
2022-10-28T00:49:05.450Z,100.00
2022-10-28T00:53:20.665Z,100.00
2022-10-28T00:57:28.612Z,100.00
2022-10-28T01:01:30.205Z,100.00
2022-10-28T01:05:35.707Z,100.00
2022-10-28T01:09:39.377Z,100.00
2022-10-28T01:14:06.146Z,100.00
2022-10-28T01:18:32.173Z,100.00
2022-10-28T01:22:42.358Z,100.00
2022-10-28T01:27:04.892Z,100.00
2022-10-28T01:31:30.622Z,100.00
2022-10-28T01:35:52.439Z,100.00
2022-10-28T01:40:08.155Z,100.00
2022-10-28T01:44:27.302Z,100.00
2022-10-28T01:48:39.873Z,100.00
2022-10-28T01:52:43.537Z,100.00
2022-10-28T01:56:47.027Z,100.00
2022-10-28T02:00:49.240Z,100.00
2022-10-28T02:04:50.676Z,100.00
2022-10-28T02:09:02.635Z,100.00
2022-10-28T02:13:07.704Z,100.00
2022-10-28T02:17:31.168Z,100.00
2022-10-28T02:21:37.210Z,100.00
2022-10-28T02:25:48.538Z,100.00
2022-10-28T02:29:58.994Z,100.00
2022-10-28T02:34:09.940Z,100.00
2022-10-28T02:38:15.788Z,100.00
2022-10-28T02:42:31.149Z,100.00
2022-10-28T02:46:34.923Z,100.00
2022-10-28T02:50:40.280Z,100.00
2022-10-28T02:54:55.725Z,100.00
2022-10-28T02:58:57.317Z,100.00
2022-10-28T03:02:58.748Z,100.00
2022-10-28T03:07:00.159Z,100.00
2022-10-28T03:11:01.573Z,100.00
2022-10-28T03:15:03.754Z,100.00
2022-10-28T03:19:05.275Z,100.00
2022-10-28T03:23:06.717Z,100.00
2022-10-28T03:27:08.721Z,100.00
2022-10-28T03:31:10.112Z,100.00
2022-10-28T03:35:11.565Z,100.00
2022-10-28T03:39:12.999Z,100.00
2022-10-28T03:43:14.723Z,100.00
2022-10-28T03:47:16.086Z,100.00
2022-10-28T03:51:17.722Z,100.00
2022-10-28T03:55:19.172Z,100.00
2022-10-28T03:59:20.622Z,100.00
2022-10-28T04:03:23.976Z,100.00
2022-10-28T04:07:25.419Z,100.00
2022-10-28T04:11:26.872Z,100.00
2022-10-28T04:15:28.492Z,100.00
2022-10-28T04:19:29.825Z,100.00
2022-10-28T04:23:31.210Z,100.00
2022-10-28T04:27:32.611Z,100.00
2022-10-28T04:31:34.474Z,100.00
2022-10-28T04:35:39.282Z,100.00
2022-10-28T04:39:40.781Z,100.00
2022-10-28T04:43:42.537Z,100.00
2022-10-28T04:47:44.390Z,100.00
2022-10-28T04:55:48.675Z,100.00
2022-10-28T04:59:50.014Z,100.00
2022-10-28T05:03:51.364Z,100.00
2022-10-28T05:07:53.147Z,100.00
2022-10-28T05:11:54.696Z,100.00
2022-10-28T05:15:56.091Z,100.00
2022-10-28T05:19:57.488Z,100.00
2022-10-28T05:23:58.968Z,100.00
2022-10-28T05:28:00.923Z,100.00
2022-10-28T05:32:02.350Z,100.00
2022-10-28T05:36:04.084Z,100.00
2022-10-28T05:40:06.073Z,100.00
2022-10-28T05:44:07.626Z,100.00
2022-10-28T05:48:09.706Z,100.00
2022-10-28T05:52:11.066Z,100.00
2022-10-28T05:56:12.499Z,100.00
2022-10-28T06:00:14.864Z,100.00
2022-10-28T06:04:16.311Z,100.00
2022-10-28T06:08:18.142Z,100.00
2022-10-28T06:12:18.027Z,100.00
2022-10-28T06:16:19.587Z,100.00
2022-10-28T06:20:20.950Z,100.00
2022-10-28T06:24:22.414Z,100.00
2022-10-28T06:28:24.494Z,100.00
2022-10-28T06:32:25.898Z,100.00
2022-10-28T06:36:28.056Z,100.00
2022-10-28T06:40:29.575Z,100.00
2022-10-28T06:44:30.954Z,100.00
2022-10-28T06:48:33.913Z,100.00
2022-10-28T06:52:35.329Z,100.00
2022-10-28T06:56:36.761Z,100.00
2022-10-28T07:00:38.130Z,100.00
2022-10-28T07:04:39.492Z,100.00
2022-10-28T07:08:40.923Z,100.00
2022-10-28T07:12:42.306Z,100.00
2022-10-28T07:16:43.699Z,100.00
2022-10-28T07:20:45.158Z,100.00
2022-10-28T07:24:46.577Z,100.00
2022-10-28T07:28:47.998Z,100.00
2022-10-28T07:32:49.442Z,100.00
2022-10-28T07:36:52.488Z,100.00
2022-10-28T07:40:53.905Z,100.00
2022-10-28T07:44:55.301Z,100.00
2022-10-28T07:48:56.737Z,100.00
2022-10-28T07:52:58.173Z,100.00
2022-10-28T07:56:59.631Z,100.00
2022-10-28T08:01:07.066Z,100.00
2022-10-28T08:05:08.734Z,100.00
2022-10-28T08:09:10.261Z,100.00
2022-10-28T08:13:12.615Z,100.00
2022-10-28T08:17:14.132Z,100.00
2022-10-28T08:21:16.136Z,100.00
2022-10-28T08:25:17.506Z,100.00
2022-10-28T08:29:18.928Z,100.00
2022-10-28T08:33:20.317Z,100.00
2022-10-28T08:37:21.777Z,100.00
2022-10-28T08:41:46.595Z,100.00
2022-10-28T08:45:57.015Z,100.00
2022-10-28T08:50:10.288Z,100.00
2022-10-28T08:54:37.170Z,100.00
2022-10-28T08:58:39.149Z,100.00
2022-10-28T09:03:07.821Z,100.00
2022-10-28T09:07:21.446Z,100.00
2022-10-28T09:11:27.355Z,100.00
2022-10-28T09:15:34.918Z,100.00
2022-10-28T09:19:47.749Z,100.00
2022-10-28T09:24:00.872Z,100.00
2022-10-28T09:28:06.461Z,100.00
2022-10-28T09:32:19.714Z,100.00
2022-10-28T09:36:31.939Z,100.00
2022-10-28T09:40:36.589Z,100.00
2022-10-28T09:44:55.961Z,100.00
2022-10-28T09:49:02.008Z,100.00
2022-10-28T09:53:25.118Z,100.00
2022-10-28T09:57:30.772Z,100.00
2022-10-28T10:01:35.004Z,100.00
2022-10-28T10:05:51.014Z,100.00
2022-10-28T10:09:52.695Z,100.00
2022-10-28T10:13:57.129Z,100.00
2022-10-28T10:18:02.130Z,96.67
2022-10-28T10:22:03.575Z,98.23
2022-10-28T10:26:11.998Z,96.14
2022-10-28T10:30:20.949Z,92.19
2022-10-28T10:34:25.367Z,91.56
2022-10-28T10:38:28.123Z,91.97
2022-10-28T10:42:29.557Z,92.11
2022-10-28T10:46:34.160Z,90.91
2022-10-28T10:50:37.824Z,86.64
2022-10-28T10:54:39.311Z,85.45
2022-10-28T10:58:49.766Z,86.60
2022-10-28T11:02:55.026Z,83.42
2022-10-28T11:06:58.128Z,81.06
2022-10-28T11:11:04.847Z,82.21
2022-10-28T11:15:22.856Z,82.40
2022-10-28T11:19:29.935Z,80.29
2022-10-28T11:23:37.047Z,78.80
2022-10-28T11:27:38.447Z,78.08
2022-10-28T11:32:04.731Z,74.77
2022-10-28T11:36:09.114Z,72.84
2022-10-28T11:40:39.730Z,73.50
2022-10-28T11:44:56.731Z,72.73
2022-10-28T11:49:27.138Z,70.76
2022-10-28T11:53:36.174Z,71.15
2022-10-28T11:58:22.711Z,70.97
2022-10-28T12:02:36.612Z,72.00
2022-10-28T12:06:49.080Z,74.64
2022-10-28T12:11:03.230Z,73.51
2022-10-28T12:15:20.492Z,70.32
2022-10-28T12:19:33.620Z,70.09
2022-10-28T12:23:37.950Z,70.11
2022-10-28T12:27:44.304Z,71.42
2022-10-28T12:31:50.308Z,69.54
2022-10-28T12:35:55.546Z,67.69
2022-10-28T12:40:04.853Z,72.92
2022-10-28T12:44:13.857Z,69.69
2022-10-28T12:48:32.133Z,71.02
2022-10-28T12:52:43.618Z,71.79
2022-10-28T12:56:52.930Z,71.10
2022-10-28T13:01:00.274Z,70.12
2022-10-28T13:05:04.422Z,67.85
2022-10-28T13:09:24.265Z,69.00
2022-10-28T13:13:47.799Z,67.51
2022-10-28T13:18:07.908Z,67.34
2022-10-28T13:22:16.991Z,69.62
2022-10-28T13:26:26.977Z,68.80
2022-10-28T13:30:31.956Z,70.23
2022-10-28T13:34:37.594Z,69.05
2022-10-28T13:38:40.475Z,73.28
2022-10-28T13:42:47.220Z,73.77
2022-10-28T13:47:05.138Z,70.39
2022-10-28T13:51:09.357Z,70.87
2022-10-28T13:55:13.709Z,70.86
2022-10-28T13:59:15.054Z,71.98
2022-10-28T14:03:19.698Z,73.98
2022-10-28T14:07:26.644Z,75.72
2022-10-28T14:11:30.293Z,75.48
2022-10-28T14:15:38.378Z,73.48
2022-10-28T14:19:40.053Z,74.98
2022-10-28T14:23:44.460Z,76.04
2022-10-28T14:27:45.894Z,76.63
2022-10-28T14:31:47.424Z,79.14
2022-10-28T14:35:58.135Z,80.36
2022-10-28T14:40:34.192Z,80.55
2022-10-28T14:44:50.589Z,81.18
2022-10-28T14:48:57.353Z,81.83
2022-10-28T14:53:02.002Z,84.12
2022-10-28T14:57:05.487Z,87.72
2022-10-28T15:01:23.203Z,88.79
2022-10-28T15:05:30.562Z,88.78
2022-10-28T15:09:34.829Z,90.20
2022-10-28T15:13:36.268Z,92.56
2022-10-28T15:17:42.393Z,94.64
2022-10-28T15:21:43.781Z,94.17
2022-10-28T15:25:45.247Z,97.92
2022-10-28T15:29:48.757Z,100.00
2022-10-28T15:33:50.195Z,100.00
2022-10-28T15:37:51.743Z,100.00
2022-10-28T15:41:54.775Z,100.00
2022-10-28T15:46:10.837Z,100.00
2022-10-28T15:50:15.223Z,100.00
2022-10-28T15:54:19.886Z,100.00
2022-10-28T15:58:30.881Z,100.00
2022-10-28T16:02:42.741Z,100.00
2022-10-28T16:06:45.243Z,100.00
2022-10-28T16:10:55.635Z,100.00
2022-10-28T16:15:04.659Z,100.00
2022-10-28T16:19:10.417Z,100.00
2022-10-28T16:23:21.094Z,100.00
2022-10-28T16:27:31.771Z,100.00
2022-10-28T16:31:34.150Z,100.00
2022-10-28T16:35:35.595Z,100.00
2022-10-28T16:39:36.935Z,100.00
2022-10-28T16:43:38.315Z,100.00
2022-10-28T16:47:39.814Z,100.00
2022-10-28T16:51:41.163Z,100.00
2022-10-28T16:55:42.705Z,100.00
2022-10-28T16:59:44.316Z,100.00
2022-10-28T17:03:45.664Z,100.00
2022-10-28T17:07:47.296Z,100.00
2022-10-28T17:11:48.627Z,100.00
2022-10-28T17:15:53.533Z,100.00
2022-10-28T17:19:55.177Z,100.00
2022-10-28T17:23:56.582Z,100.00
2022-10-28T17:27:58.171Z,100.00
2022-10-28T17:31:59.734Z,100.00
2022-10-28T17:36:05.996Z,100.00
2022-10-28T17:40:08.304Z,100.00
2022-10-28T17:44:09.670Z,100.00
2022-10-28T17:48:11.200Z,100.00
2022-10-28T17:52:13.252Z,100.00
2022-10-28T17:56:14.711Z,100.00
2022-10-28T18:00:16.309Z,100.00
2022-10-28T18:04:17.749Z,100.00
2022-10-28T18:08:20.705Z,100.00
2022-10-28T18:12:22.079Z,100.00
2022-10-28T18:16:27.940Z,100.00
2022-10-28T18:20:29.322Z,100.00
2022-10-28T18:24:30.742Z,100.00
2022-10-28T18:28:34.016Z,100.00
2022-10-28T18:32:35.367Z,100.00
2022-10-28T18:36:37.232Z,100.00
2022-10-28T18:40:46.653Z,100.00
2022-10-28T18:44:47.984Z,100.00
2022-10-28T18:48:49.790Z,100.00
2022-10-28T18:52:51.183Z,100.00
2022-10-28T18:56:56.552Z,100.00
2022-10-28T19:01:06.486Z,100.00
2022-10-28T19:05:08.064Z,100.00
2022-10-28T19:09:09.501Z,100.00
2022-10-28T19:13:10.880Z,100.00
2022-10-28T19:17:12.415Z,100.00
2022-10-28T19:21:15.917Z,100.00
2022-10-28T19:25:17.312Z,100.00
2022-10-28T19:29:19.810Z,100.00
2022-10-28T19:33:21.232Z,100.00
2022-10-28T19:37:23.168Z,100.00
2022-10-28T19:41:29.859Z,100.00
2022-10-28T19:45:31.210Z,100.00
2022-10-28T19:49:37.240Z,100.00
2022-10-28T19:53:40.812Z,100.00
2022-10-28T19:57:42.178Z,100.00
2022-10-28T20:01:43.636Z,100.00
2022-10-28T20:05:45.115Z,100.00
2022-10-28T20:09:46.610Z,100.00
2022-10-28T20:13:52.365Z,100.00
2022-10-28T20:17:53.802Z,100.00
2022-10-28T20:21:55.228Z,100.00
2022-10-28T20:25:56.696Z,100.00
2022-10-28T20:29:59.688Z,100.00
2022-10-28T20:34:03.857Z,100.00
2022-10-28T20:38:05.318Z,100.00
2022-10-28T20:42:06.697Z,100.00
2022-10-28T20:46:09.134Z,100.00
2022-10-28T20:50:10.500Z,100.00
2022-10-28T20:54:12.034Z,100.00
2022-10-28T20:58:13.653Z,100.00
2022-10-28T21:02:15.224Z,100.00
2022-10-28T21:06:17.251Z,100.00
2022-10-28T21:10:19.078Z,100.00
2022-10-28T21:14:21.553Z,100.00
2022-10-28T21:18:22.990Z,100.00
2022-10-28T21:22:24.489Z,100.00
2022-10-28T21:26:27.056Z,100.00
2022-10-28T21:30:28.819Z,100.00
2022-10-28T21:34:30.219Z,100.00
2022-10-28T21:38:31.928Z,100.00
2022-10-28T21:42:33.391Z,100.00
2022-10-28T21:46:34.784Z,100.00
2022-10-28T21:50:36.142Z,100.00
2022-10-28T21:54:37.521Z,100.00
2022-10-28T21:58:39.888Z,100.00
2022-10-28T22:02:41.389Z,100.00
2022-10-28T22:06:43.028Z,100.00
2022-10-28T22:10:44.530Z,100.00
2022-10-28T22:14:45.941Z,100.00
2022-10-28T22:18:47.453Z,100.00
2022-10-28T22:22:48.849Z,100.00
2022-10-28T22:26:50.335Z,100.00
2022-10-28T22:30:51.735Z,100.00
2022-10-28T22:34:53.115Z,100.00
2022-10-28T22:38:55.197Z,100.00
2022-10-28T22:42:56.572Z,100.00
2022-10-28T22:46:58.037Z,100.00
2022-10-28T22:51:00.032Z,100.00
2022-10-28T22:55:01.429Z,100.00
2022-10-28T22:59:02.860Z,100.00
2022-10-28T23:03:04.392Z,100.00
2022-10-28T23:07:05.770Z,100.00
2022-10-28T23:11:08.195Z,100.00
2022-10-28T23:15:09.566Z,100.00
2022-10-28T23:19:10.962Z,100.00
2022-10-28T23:23:12.387Z,100.00
2022-10-28T23:27:13.803Z,100.00
2022-10-28T23:31:15.465Z,100.00
2022-10-28T23:35:17.150Z,100.00
2022-10-28T23:39:18.556Z,100.00
2022-10-28T23:43:19.937Z,100.00
2022-10-28T23:47:21.326Z,100.00
2022-10-28T23:51:22.719Z,100.00
2022-10-28T23:55:24.101Z,100.00
2022-10-28T23:59:25.510Z,100.00
